createdAt,value
2019-02-08T00:00:37.218Z,5.40
2019-02-08T00:03:08.339Z,5.40
2019-02-08T00:05:39.308Z,5.40
2019-02-08T00:08:10.197Z,5.40
2019-02-08T00:10:41.376Z,5.40
2019-02-08T00:13:12.109Z,5.40
2019-02-08T00:15:43.519Z,5.40
2019-02-08T00:18:14.753Z,5.40
2019-02-08T00:20:45.969Z,5.40
2019-02-08T00:23:26.314Z,5.30
2019-02-08T00:25:48.907Z,5.30
2019-02-08T00:28:19.648Z,5.40
2019-02-08T00:30:50.327Z,5.40
2019-02-08T00:33:21.400Z,5.40
2019-02-08T00:35:52.108Z,5.30
2019-02-08T00:38:23.100Z,5.30
2019-02-08T00:40:53.878Z,5.30
2019-02-08T00:43:24.526Z,5.30
2019-02-08T00:45:55.352Z,5.30
2019-02-08T00:48:27.433Z,5.30
2019-02-08T00:50:58.355Z,5.40
2019-02-08T00:53:33.382Z,5.30
2019-02-08T00:56:01.475Z,5.30
2019-02-08T00:58:32.261Z,5.30
2019-02-08T01:01:03.362Z,5.30
2019-02-08T01:03:34.169Z,5.30
2019-02-08T01:06:05.553Z,5.30
2019-02-08T01:08:36.690Z,5.30
2019-02-08T01:11:07.487Z,5.30
2019-02-08T01:13:38.301Z,5.30
2019-02-08T01:16:08.968Z,5.30
2019-02-08T01:18:39.878Z,5.30
2019-02-08T01:21:10.990Z,5.30
2019-02-08T01:23:41.925Z,5.30
2019-02-08T01:26:13.057Z,5.30
2019-02-08T01:28:43.609Z,5.30
2019-02-08T01:31:14.143Z,5.20
2019-02-08T01:33:44.907Z,5.30
2019-02-08T01:36:15.396Z,5.20
2019-02-08T01:38:46.789Z,5.20
2019-02-08T01:41:17.869Z,5.20
2019-02-08T01:43:48.667Z,5.20
2019-02-08T01:46:19.539Z,5.20
2019-02-08T01:48:50.229Z,5.20
2019-02-08T01:51:21.023Z,5.20
2019-02-08T01:53:51.905Z,5.20
2019-02-08T01:56:22.549Z,5.20
2019-02-08T01:58:53.383Z,5.20
2019-02-08T02:01:24.361Z,5.20
2019-02-08T02:03:55.310Z,5.20
2019-02-08T02:06:26.295Z,5.10
2019-02-08T02:08:58.248Z,5.10
2019-02-08T02:11:29.047Z,5.10
2019-02-08T02:13:59.905Z,5.10
2019-02-08T02:16:30.411Z,5.10
2019-02-08T02:19:01.191Z,5.10
2019-02-08T02:21:31.940Z,5.10
2019-02-08T02:24:03.129Z,5.10
2019-02-08T02:26:33.791Z,5.10
2019-02-08T02:29:04.254Z,5.10
2019-02-08T02:31:35.325Z,5.10
2019-02-08T02:34:06.004Z,5.10
2019-02-08T02:36:36.592Z,5.10
2019-02-08T02:39:08.880Z,5.10
2019-02-08T02:41:39.877Z,5.10
2019-02-08T02:44:10.667Z,5.10
2019-02-08T02:46:41.753Z,5.10
2019-02-08T02:49:12.699Z,5.10
2019-02-08T02:51:43.444Z,5.10
2019-02-08T02:54:14.130Z,5.10
2019-02-08T02:56:44.803Z,5.10
2019-02-08T02:59:15.684Z,5.10
2019-02-08T03:01:46.290Z,5.10
2019-02-08T03:04:17.297Z,5.10
2019-02-08T03:06:48.044Z,5.10
2019-02-08T03:09:18.620Z,5.10
2019-02-08T03:11:49.311Z,5.10
2019-02-08T03:14:19.984Z,5.10
2019-02-08T03:16:50.724Z,5.10
2019-02-08T03:19:21.397Z,5.10
2019-02-08T03:21:52.246Z,5.10
2019-02-08T03:24:23.472Z,5.10
2019-02-08T03:26:54.039Z,5.10
2019-02-08T03:29:24.908Z,5.10
2019-02-08T03:31:55.589Z,5.10
2019-02-08T03:34:26.233Z,5.10
2019-02-08T03:36:57.348Z,5.10
2019-02-08T03:39:28.287Z,5.10
2019-02-08T03:41:58.981Z,5.10
2019-02-08T03:44:29.607Z,5.10
2019-02-08T03:47:00.354Z,5.10
2019-02-08T03:49:31.143Z,5.10
2019-02-08T03:52:01.991Z,5.10
2019-02-08T03:54:32.412Z,5.10
2019-02-08T03:57:03.069Z,5.10
2019-02-08T03:59:33.830Z,5.10
2019-02-08T04:02:04.919Z,5.10
2019-02-08T04:04:35.541Z,5.10
2019-02-08T04:07:06.455Z,5.10
2019-02-08T04:09:37.129Z,5.10
2019-02-08T04:12:08.243Z,5.10
2019-02-08T04:14:38.879Z,5.00
2019-02-08T04:17:09.422Z,5.10
2019-02-08T04:19:40.185Z,5.10
2019-02-08T04:22:10.837Z,5.10
2019-02-08T04:24:41.551Z,5.10
2019-02-08T04:27:12.047Z,5.10
2019-02-08T04:29:42.921Z,5.10
2019-02-08T04:32:13.551Z,5.10
2019-02-08T04:34:44.290Z,5.00
2019-02-08T04:37:15.179Z,5.00
2019-02-08T04:39:46.270Z,5.00
2019-02-08T04:42:16.855Z,5.00
2019-02-08T04:44:47.431Z,5.00
2019-02-08T04:47:18.062Z,5.00
2019-02-08T04:49:48.747Z,5.00
2019-02-08T04:52:19.421Z,5.00
2019-02-08T04:54:50.503Z,5.00
2019-02-08T04:57:21.503Z,5.00
2019-02-08T04:59:52.581Z,5.00
2019-02-08T05:02:23.127Z,5.00
2019-02-08T05:04:53.805Z,5.00
2019-02-08T05:07:24.454Z,5.00
2019-02-08T05:09:55.384Z,5.00
2019-02-08T05:12:25.980Z,5.00
2019-02-08T05:14:57.083Z,5.00
2019-02-08T05:17:27.790Z,5.00
2019-02-08T05:19:58.585Z,5.00
2019-02-08T05:22:29.601Z,5.00
2019-02-08T05:25:00.399Z,5.00
2019-02-08T05:27:31.300Z,5.00
2019-02-08T05:30:03.167Z,5.00
2019-02-08T05:32:33.994Z,5.00
2019-02-08T05:35:05.274Z,5.00
2019-02-08T05:37:36.148Z,5.00
2019-02-08T05:40:12.737Z,5.00
2019-02-08T05:42:43.551Z,5.00
2019-02-08T05:45:19.563Z,5.00
2019-02-08T05:47:50.430Z,5.00
2019-02-08T05:50:23.138Z,5.00
2019-02-08T05:52:54.174Z,5.00
2019-02-08T05:55:32.583Z,5.00
2019-02-08T05:58:03.637Z,5.00
2019-02-08T06:00:44.200Z,5.00
2019-02-08T06:03:14.848Z,5.00
2019-02-08T06:05:46.160Z,5.00
2019-02-08T06:08:16.591Z,5.00
2019-02-08T06:10:48.200Z,5.00
2019-02-08T06:13:18.992Z,5.00
2019-02-08T06:15:49.686Z,5.00
2019-02-08T06:18:20.193Z,5.00
2019-02-08T06:20:51.048Z,5.00
2019-02-08T06:23:21.536Z,5.00
2019-02-08T06:25:52.105Z,5.00
2019-02-08T06:28:22.987Z,5.00
2019-02-08T06:30:53.830Z,5.00
2019-02-08T06:33:24.624Z,5.00
2019-02-08T06:35:55.402Z,5.00
2019-02-08T06:38:25.926Z,4.90
2019-02-08T06:40:56.507Z,5.00
2019-02-08T06:43:27.587Z,4.90
2019-02-08T06:45:58.498Z,4.90
2019-02-08T06:48:29.098Z,4.90
2019-02-08T06:51:00.188Z,4.90
2019-02-08T06:53:30.863Z,4.90
2019-02-08T06:56:01.506Z,4.90
2019-02-08T06:58:33.660Z,4.90
2019-02-08T07:01:18.477Z,4.90
2019-02-08T07:03:59.726Z,4.90
2019-02-08T07:06:35.487Z,4.90
2019-02-08T07:09:13.000Z,4.90
2019-02-08T07:11:45.138Z,4.90
2019-02-08T07:14:29.411Z,4.90
2019-02-08T07:17:04.935Z,4.90
2019-02-08T07:19:49.726Z,4.90
2019-02-08T07:22:34.327Z,4.90
2019-02-08T07:25:21.989Z,4.90
2019-02-08T07:27:54.784Z,4.90
2019-02-08T07:30:35.850Z,4.90
2019-02-08T07:33:25.343Z,4.90
2019-02-08T07:36:09.955Z,4.90
2019-02-08T07:39:00.577Z,4.90
2019-02-08T07:41:40.323Z,4.90
2019-02-08T07:44:21.091Z,4.90
2019-02-08T07:46:58.582Z,4.90
2019-02-08T07:49:41.197Z,4.90
2019-02-08T07:52:29.484Z,4.90
2019-02-08T07:55:04.567Z,5.00
2019-02-08T07:57:43.637Z,5.00
2019-02-08T08:00:21.517Z,5.00
2019-02-08T08:02:54.296Z,4.90
2019-02-08T08:05:32.904Z,4.90
2019-02-08T08:08:08.252Z,5.00
2019-02-08T08:10:56.392Z,5.00
2019-02-08T08:13:28.968Z,5.00
2019-02-08T08:16:01.228Z,5.00
2019-02-08T08:18:52.143Z,5.00
2019-02-08T08:21:36.597Z,5.00
2019-02-08T08:24:09.585Z,5.00
2019-02-08T08:26:58.209Z,5.00
2019-02-08T08:29:31.947Z,5.00
2019-02-08T08:32:07.862Z,5.00
2019-02-08T08:35:05.603Z,5.00
2019-02-08T08:37:47.914Z,5.00
2019-02-08T08:40:21.657Z,5.00
2019-02-08T08:43:16.061Z,5.00
2019-02-08T08:46:10.744Z,5.00
2019-02-08T08:48:55.883Z,5.00
2019-02-08T08:51:32.333Z,5.00
2019-02-08T08:54:39.048Z,5.00
2019-02-08T08:57:24.492Z,5.00
2019-02-08T09:00:20.403Z,5.00
2019-02-08T09:03:28.838Z,5.00
2019-02-08T09:06:20.350Z,5.00
2019-02-08T09:09:08.705Z,5.10
2019-02-08T09:11:51.306Z,5.00
2019-02-08T09:14:41.748Z,5.00
2019-02-08T09:17:50.390Z,5.00
2019-02-08T09:20:35.866Z,5.00
2019-02-08T09:23:21.073Z,5.00
2019-02-08T09:26:17.932Z,5.00
2019-02-08T09:29:04.330Z,5.00
2019-02-08T09:31:46.852Z,5.00
2019-02-08T09:34:41.984Z,5.00
2019-02-08T09:37:30.598Z,5.00
2019-02-08T09:40:32.677Z,5.00
2019-02-08T09:43:39.636Z,5.00
2019-02-08T09:46:50.380Z,5.00
2019-02-08T09:49:57.201Z,5.00
2019-02-08T09:52:44.652Z,5.00
2019-02-08T09:55:39.661Z,5.00
2019-02-08T09:58:46.539Z,5.00
2019-02-08T10:01:22.576Z,5.00
2019-02-08T10:04:11.767Z,5.10
2019-02-08T10:06:53.425Z,5.10
2019-02-08T10:09:29.593Z,5.10
2019-02-08T10:12:06.305Z,5.10
2019-02-08T10:15:05.776Z,5.10
2019-02-08T10:17:54.430Z,5.20
2019-02-08T10:20:58.187Z,5.20
2019-02-08T10:23:37.672Z,5.20
2019-02-08T10:26:29.597Z,5.20
2019-02-08T10:29:19.860Z,5.30
2019-02-08T10:32:08.449Z,5.30
2019-02-08T10:35:13.811Z,5.30
2019-02-08T10:38:19.170Z,5.30
2019-02-08T10:41:09.153Z,5.30
2019-02-08T10:44:05.493Z,5.30
2019-02-08T10:46:55.873Z,5.30
2019-02-08T10:50:02.319Z,5.30
2019-02-08T10:52:52.812Z,5.30
2019-02-08T10:56:01.258Z,5.40
2019-02-08T10:59:00.534Z,5.40
2019-02-08T11:01:56.999Z,5.40
2019-02-08T11:04:52.877Z,5.40
2019-02-08T11:07:57.889Z,5.40
2019-02-08T11:10:49.922Z,5.40
2019-02-08T11:13:45.989Z,5.40
2019-02-08T11:16:46.866Z,5.40
2019-02-08T11:19:20.199Z,5.40
2019-02-08T11:21:51.231Z,5.40
2019-02-08T11:24:22.928Z,5.40
2019-02-08T11:26:53.841Z,5.40
2019-02-08T11:29:24.871Z,5.40
2019-02-08T11:31:55.901Z,5.40
2019-02-08T11:34:26.520Z,5.40
2019-02-08T11:36:57.464Z,5.40
2019-02-08T11:39:28.448Z,5.40
2019-02-08T11:41:59.368Z,5.40
2019-02-08T11:44:30.435Z,5.40
2019-02-08T11:47:01.218Z,5.40
2019-02-08T11:49:31.842Z,5.40
2019-02-08T11:52:02.583Z,5.40
2019-02-08T11:54:33.228Z,5.40
2019-02-08T11:57:04.298Z,5.40
2019-02-08T11:59:34.878Z,5.40
2019-02-08T12:02:05.800Z,5.40
2019-02-08T12:04:36.675Z,5.40
2019-02-08T12:07:07.683Z,5.40
2019-02-08T12:09:38.553Z,5.40
2019-02-08T12:12:09.384Z,5.40
2019-02-08T12:14:39.978Z,5.40
2019-02-08T12:17:10.783Z,5.40
2019-02-08T12:19:41.693Z,5.40
2019-02-08T12:22:12.490Z,5.40
2019-02-08T12:24:46.835Z,5.40
2019-02-08T12:27:17.690Z,5.40
2019-02-08T12:29:48.893Z,5.40
2019-02-08T12:32:19.969Z,5.40
2019-02-08T12:34:50.759Z,5.40
2019-02-08T12:37:21.365Z,5.40
2019-02-08T12:39:52.074Z,5.40
2019-02-08T12:42:23.136Z,5.40
2019-02-08T12:44:53.795Z,5.40
2019-02-08T12:47:25.123Z,5.40
2019-02-08T12:49:55.770Z,5.50
2019-02-08T12:52:27.156Z,5.50
2019-02-08T12:54:58.229Z,5.50
2019-02-08T12:57:29.059Z,5.50
2019-02-08T13:00:00.024Z,5.50
2019-02-08T13:02:30.932Z,5.50
2019-02-08T13:05:03.182Z,5.50
2019-02-08T13:07:33.992Z,5.50
2019-02-08T13:10:08.093Z,5.50
2019-02-08T13:12:38.612Z,5.50
2019-02-08T13:15:11.773Z,5.50
2019-02-08T13:17:42.509Z,5.50
2019-02-08T13:20:15.880Z,5.50
2019-02-08T13:22:46.819Z,5.50
2019-02-08T13:25:18.473Z,5.50
2019-02-08T13:27:50.113Z,5.50
2019-02-08T13:30:23.650Z,5.50
2019-02-08T13:32:54.811Z,5.50
2019-02-08T13:35:25.959Z,5.50
2019-02-08T13:37:56.767Z,5.50
2019-02-08T13:40:31.342Z,5.50
2019-02-08T13:43:03.606Z,5.50
2019-02-08T13:45:34.390Z,5.50
2019-02-08T13:48:05.413Z,5.50
2019-02-08T13:50:36.651Z,5.50
2019-02-08T13:53:08.685Z,5.50
2019-02-08T13:55:39.810Z,5.60
2019-02-08T13:58:10.758Z,5.60
2019-02-08T14:00:42.587Z,5.50
2019-02-08T14:03:13.369Z,5.60
2019-02-08T14:05:44.172Z,5.60
2019-02-08T14:08:15.082Z,5.60
2019-02-08T14:10:45.819Z,5.60
2019-02-08T14:13:16.607Z,5.60
2019-02-08T14:15:47.275Z,5.60
2019-02-08T14:18:18.252Z,5.60
2019-02-08T14:20:49.090Z,5.60
2019-02-08T14:23:20.244Z,5.60
2019-02-08T14:25:51.280Z,5.60
2019-02-08T14:28:22.424Z,5.60
2019-02-08T14:30:53.340Z,5.60
2019-02-08T14:33:23.954Z,5.60
2019-02-08T14:35:55.925Z,5.60
2019-02-08T14:38:27.106Z,5.60
2019-02-08T14:40:57.856Z,5.60
2019-02-08T14:43:28.681Z,5.60
2019-02-08T14:45:59.596Z,5.60
2019-02-08T14:48:30.620Z,5.60
2019-02-08T14:51:01.454Z,5.60
2019-02-08T14:53:32.059Z,5.60
2019-02-08T14:56:03.281Z,5.60
2019-02-08T14:58:34.319Z,5.60
2019-02-08T15:01:05.151Z,5.70
2019-02-08T15:03:36.177Z,5.70
2019-02-08T15:06:07.095Z,5.70
2019-02-08T15:08:38.132Z,5.70
2019-02-08T15:11:09.244Z,5.70
2019-02-08T15:13:39.957Z,5.70
2019-02-08T15:16:10.698Z,5.70
2019-02-08T15:18:41.471Z,5.70
2019-02-08T15:21:12.628Z,5.70
2019-02-08T15:23:43.401Z,5.70
2019-02-08T15:26:14.233Z,5.70
2019-02-08T15:28:45.029Z,5.70
2019-02-08T15:31:16.292Z,5.70
2019-02-08T15:33:47.435Z,5.70
2019-02-08T15:36:18.476Z,5.70
2019-02-08T15:38:49.378Z,5.70
2019-02-08T15:41:20.162Z,5.70
2019-02-08T15:43:51.394Z,5.70
2019-02-08T15:46:22.503Z,5.70
2019-02-08T15:48:53.602Z,5.70
2019-02-08T15:51:24.723Z,5.70
2019-02-08T15:53:55.627Z,5.70
2019-02-08T15:56:26.685Z,5.70
2019-02-08T15:58:57.516Z,5.80
2019-02-08T16:01:28.402Z,5.70
2019-02-08T16:03:59.185Z,5.70
2019-02-08T16:06:29.969Z,5.70
2019-02-08T16:09:01.085Z,5.70
2019-02-08T16:11:31.890Z,5.70
2019-02-08T16:14:02.590Z,5.70
2019-02-08T16:16:33.551Z,5.70
2019-02-08T16:19:04.540Z,5.70
2019-02-08T16:21:35.323Z,5.80
2019-02-08T16:24:06.063Z,5.70
2019-02-08T16:26:36.660Z,5.70
2019-02-08T16:29:07.843Z,5.70
2019-02-08T16:31:38.914Z,5.70
2019-02-08T16:34:09.858Z,5.70
2019-02-08T16:36:40.746Z,5.80
2019-02-08T16:39:11.566Z,5.80
2019-02-08T16:41:42.448Z,5.80
2019-02-08T16:44:13.139Z,5.70
2019-02-08T16:46:44.009Z,5.70
2019-02-08T16:49:14.790Z,5.80
2019-02-08T16:51:45.575Z,5.80
2019-02-08T16:54:16.263Z,5.80
2019-02-08T16:56:46.929Z,5.70
2019-02-08T16:59:17.635Z,5.80
2019-02-08T17:01:49.868Z,5.80
2019-02-08T17:04:20.808Z,5.80
2019-02-08T17:06:51.702Z,5.80
2019-02-08T17:09:22.404Z,5.80
2019-02-08T17:11:53.201Z,5.80
2019-02-08T17:14:23.990Z,5.80
2019-02-08T17:16:55.365Z,5.80
2019-02-08T17:19:26.335Z,5.80
2019-02-08T17:21:57.583Z,5.80
2019-02-08T17:24:28.530Z,5.80
2019-02-08T17:26:59.448Z,5.80
2019-02-08T17:29:30.124Z,5.80
2019-02-08T17:32:01.201Z,5.80
2019-02-08T17:34:31.835Z,5.80
2019-02-08T17:37:02.747Z,5.80
2019-02-08T17:39:33.720Z,5.80
2019-02-08T17:42:04.281Z,5.80
2019-02-08T17:44:35.164Z,5.80
2019-02-08T17:47:05.920Z,5.90
2019-02-08T17:49:36.768Z,5.90
2019-02-08T17:52:07.639Z,5.90
2019-02-08T17:54:38.418Z,5.90
2019-02-08T17:57:09.390Z,5.80
2019-02-08T17:59:40.199Z,5.90
2019-02-08T18:02:11.002Z,5.90
2019-02-08T18:04:41.884Z,5.90
2019-02-08T18:07:12.662Z,5.90
2019-02-08T18:09:43.591Z,5.90
2019-02-08T18:12:14.392Z,5.90
2019-02-08T18:14:45.320Z,5.80
2019-02-08T18:17:16.416Z,5.80
2019-02-08T18:19:47.224Z,5.80
2019-02-08T18:22:18.364Z,5.80
2019-02-08T18:24:49.407Z,5.80
2019-02-08T18:27:20.296Z,5.90
2019-02-08T18:29:51.523Z,5.80
2019-02-08T18:32:22.584Z,5.90
2019-02-08T18:34:53.405Z,5.80
2019-02-08T18:37:24.389Z,5.90
2019-02-08T18:39:55.530Z,5.80
2019-02-08T18:42:26.499Z,5.80
2019-02-08T18:44:57.687Z,5.80
2019-02-08T18:47:28.868Z,5.90
2019-02-08T18:49:59.546Z,5.90
2019-02-08T18:52:30.663Z,5.80
2019-02-08T18:55:01.303Z,5.80
2019-02-08T18:57:32.091Z,5.90
2019-02-08T19:00:03.004Z,5.90
2019-02-08T19:02:33.997Z,5.90
2019-02-08T19:05:05.920Z,5.80
2019-02-08T19:07:36.678Z,5.90
2019-02-08T19:10:10.352Z,5.90
2019-02-08T19:12:41.286Z,5.90
2019-02-08T19:15:15.444Z,5.90
2019-02-08T19:17:46.209Z,5.90
2019-02-08T19:20:22.558Z,5.90
2019-02-08T19:22:53.507Z,5.90
2019-02-08T19:25:42.098Z,6.00
2019-02-08T19:28:13.818Z,6.10
2019-02-08T19:30:45.642Z,6.20
2019-02-08T19:33:17.014Z,6.20
2019-02-08T19:35:47.970Z,6.30
2019-02-08T19:38:21.782Z,6.30
2019-02-08T19:40:52.511Z,6.30
2019-02-08T19:43:23.792Z,6.30
2019-02-08T19:45:54.620Z,6.40
2019-02-08T19:48:25.493Z,6.40
2019-02-08T19:50:56.353Z,6.40
2019-02-08T19:53:27.327Z,6.40
2019-02-08T19:55:58.434Z,6.40
2019-02-08T19:58:34.393Z,6.40
2019-02-08T20:01:02.118Z,6.40
2019-02-08T20:03:33.623Z,6.40
2019-02-08T20:06:04.412Z,6.40
2019-02-08T20:08:35.282Z,6.40
2019-02-08T20:11:06.293Z,6.40
2019-02-08T20:13:37.162Z,6.40
2019-02-08T20:16:08.167Z,6.40
2019-02-08T20:18:38.996Z,6.50
2019-02-08T20:21:09.930Z,6.50
2019-02-08T20:23:40.709Z,6.40
2019-02-08T20:26:11.593Z,6.40
2019-02-08T20:28:42.782Z,6.40
2019-02-08T20:31:13.687Z,6.50
2019-02-08T20:33:44.651Z,6.40
2019-02-08T20:36:15.898Z,6.50
2019-02-08T20:38:46.916Z,6.50
2019-02-08T20:41:17.535Z,6.50
2019-02-08T20:43:48.383Z,6.40
2019-02-08T20:46:19.253Z,6.50
2019-02-08T20:48:50.457Z,6.40
2019-02-08T20:51:21.142Z,6.40
2019-02-08T20:53:51.930Z,6.50
2019-02-08T20:56:22.909Z,6.50
2019-02-08T20:58:53.693Z,6.50
2019-02-08T21:01:24.719Z,6.50
2019-02-08T21:03:56.573Z,6.50
2019-02-08T21:06:27.477Z,6.50
2019-02-08T21:08:58.418Z,6.50
2019-02-08T21:11:32.068Z,6.50
2019-02-08T21:14:02.930Z,6.50
2019-02-08T21:16:33.601Z,6.50
2019-02-08T21:19:04.338Z,6.50
2019-02-08T21:21:35.342Z,6.50
2019-02-08T21:24:06.370Z,6.50
2019-02-08T21:26:37.294Z,6.50
2019-02-08T21:29:08.090Z,6.50
2019-02-08T21:31:39.343Z,6.50
2019-02-08T21:34:13.949Z,6.50
2019-02-08T21:36:44.803Z,6.50
2019-02-08T21:39:15.797Z,6.50
2019-02-08T21:41:46.724Z,6.50
2019-02-08T21:44:18.005Z,6.50
2019-02-08T21:46:48.844Z,6.50
2019-02-08T21:49:19.677Z,6.50
2019-02-08T21:51:50.337Z,6.50
2019-02-08T21:54:21.226Z,6.50
2019-02-08T21:56:52.184Z,6.50
2019-02-08T21:59:22.757Z,6.50
2019-02-08T22:01:53.453Z,6.40
2019-02-08T22:04:24.433Z,6.50
2019-02-08T22:06:55.235Z,6.50
2019-02-08T22:09:26.244Z,6.50
2019-02-08T22:11:57.087Z,6.50
2019-02-08T22:14:28.111Z,6.50
2019-02-08T22:16:58.761Z,6.50
2019-02-08T22:19:29.443Z,6.50
2019-02-08T22:22:00.180Z,6.40
2019-02-08T22:24:30.913Z,6.50
2019-02-08T22:27:01.697Z,6.50
2019-02-08T22:29:32.602Z,6.50
2019-02-08T22:32:03.278Z,6.50
2019-02-08T22:34:34.163Z,6.50
2019-02-08T22:37:05.332Z,6.50
2019-02-08T22:39:36.383Z,6.40
2019-02-08T22:42:07.172Z,6.40
2019-02-08T22:44:37.880Z,6.40
2019-02-08T22:47:08.887Z,6.50
2019-02-08T22:49:39.750Z,6.50
2019-02-08T22:52:10.758Z,6.40
2019-02-08T22:54:41.696Z,6.40
2019-02-08T22:57:12.467Z,6.40
2019-02-08T22:59:43.390Z,6.40
2019-02-08T23:02:14.222Z,6.40
2019-02-08T23:04:45.047Z,6.40
2019-02-08T23:07:15.851Z,6.40
2019-02-08T23:09:46.707Z,6.40
2019-02-08T23:12:17.858Z,6.40
2019-02-08T23:14:48.887Z,6.40
2019-02-08T23:17:20.142Z,6.40
2019-02-08T23:19:51.916Z,6.40
2019-02-08T23:22:22.710Z,6.40
2019-02-08T23:24:53.488Z,6.40
2019-02-08T23:27:24.470Z,6.40
2019-02-08T23:29:55.210Z,6.40
2019-02-08T23:32:25.807Z,6.40
2019-02-08T23:34:56.709Z,6.40
2019-02-08T23:37:27.367Z,6.40
2019-02-08T23:39:58.616Z,6.40
2019-02-08T23:42:29.540Z,6.40
2019-02-08T23:45:00.555Z,6.40
2019-02-08T23:47:31.380Z,6.40
2019-02-08T23:50:02.980Z,6.40
2019-02-08T23:52:33.768Z,6.40
2019-02-08T23:55:05.753Z,6.40
2019-02-08T23:57:36.412Z,6.40
